sensor_id;sensor_type;location;lat;lon;timestamp;P1;durP1;ratioP1;P2;durP2;ratioP2
44480;SDS011;30184;42.018;23.670;2023-10-31T00:00:34;9.27;;;3.47;;
44480;SDS011;30184;42.018;23.670;2023-10-31T00:03:03;7.45;;;2.40;;
44480;SDS011;30184;42.018;23.670;2023-10-31T00:05:32;4.32;;;2.95;;
44480;SDS011;30184;42.018;23.670;2023-10-31T00:08:03;9.85;;;4.32;;
44480;SDS011;30184;42.018;23.670;2023-10-31T00:10:33;10.38;;;3.75;;
44480;SDS011;30184;42.018;23.670;2023-10-31T00:13:02;8.48;;;2.65;;
44480;SDS011;30184;42.018;23.670;2023-10-31T00:15:31;4.68;;;3.22;;
44480;SDS011;30184;42.018;23.670;2023-10-31T00:18:00;5.85;;;2.50;;
44480;SDS011;30184;42.018;23.670;2023-10-31T00:20:29;6.05;;;3.05;;
44480;SDS011;30184;42.018;23.670;2023-10-31T00:22:59;7.25;;;2.63;;
44480;SDS011;30184;42.018;23.670;2023-10-31T00:25:29;6.95;;;2.92;;
44480;SDS011;30184;42.018;23.670;2023-10-31T00:27:58;5.70;;;2.80;;
44480;SDS011;30184;42.018;23.670;2023-10-31T00:30:28;4.85;;;1.63;;
44480;SDS011;30184;42.018;23.670;2023-10-31T00:32:57;3.35;;;1.90;;
44480;SDS011;30184;42.018;23.670;2023-10-31T00:35:26;4.10;;;2.58;;
44480;SDS011;30184;42.018;23.670;2023-10-31T00:37:56;9.45;;;2.78;;
44480;SDS011;30184;42.018;23.670;2023-10-31T00:40:26;20.13;;;5.60;;
44480;SDS011;30184;42.018;23.670;2023-10-31T00:42:58;5.97;;;3.00;;
44480;SDS011;30184;42.018;23.670;2023-10-31T00:45:28;6.50;;;2.42;;
44480;SDS011;30184;42.018;23.670;2023-10-31T00:47:57;11.60;;;3.78;;
44480;SDS011;30184;42.018;23.670;2023-10-31T00:50:27;7.38;;;2.63;;
44480;SDS011;30184;42.018;23.670;2023-10-31T00:52:56;9.13;;;3.80;;
44480;SDS011;30184;42.018;23.670;2023-10-31T00:55:25;11.63;;;4.55;;
44480;SDS011;30184;42.018;23.670;2023-10-31T00:57:54;7.18;;;3.67;;
44480;SDS011;30184;42.018;23.670;2023-10-31T01:00:25;13.18;;;3.10;;
44480;SDS011;30184;42.018;23.670;2023-10-31T01:02:55;4.97;;;2.55;;
44480;SDS011;30184;42.018;23.670;2023-10-31T01:05:24;3.75;;;1.73;;
44480;SDS011;30184;42.018;23.670;2023-10-31T01:07:54;3.35;;;1.88;;
44480;SDS011;30184;42.018;23.670;2023-10-31T01:10:23;3.90;;;2.05;;
44480;SDS011;30184;42.018;23.670;2023-10-31T01:12:52;6.38;;;2.15;;
44480;SDS011;30184;42.018;23.670;2023-10-31T01:15:22;3.28;;;1.90;;
44480;SDS011;30184;42.018;23.670;2023-10-31T01:17:53;6.35;;;2.38;;
44480;SDS011;30184;42.018;23.670;2023-10-31T01:20:22;5.68;;;2.38;;
44480;SDS011;30184;42.018;23.670;2023-10-31T01:22:52;6.00;;;3.17;;
44480;SDS011;30184;42.018;23.670;2023-10-31T01:25:21;13.25;;;3.17;;
44480;SDS011;30184;42.018;23.670;2023-10-31T01:27:51;4.95;;;2.22;;
44480;SDS011;30184;42.018;23.670;2023-10-31T01:30:20;2.92;;;1.73;;
44480;SDS011;30184;42.018;23.670;2023-10-31T01:32:49;3.42;;;1.63;;
44480;SDS011;30184;42.018;23.670;2023-10-31T01:35:20;16.65;;;2.45;;
44480;SDS011;30184;42.018;23.670;2023-10-31T01:37:49;6.45;;;2.15;;
44480;SDS011;30184;42.018;23.670;2023-10-31T01:40:18;5.57;;;2.22;;
44480;SDS011;30184;42.018;23.670;2023-10-31T01:42:47;4.57;;;2.10;;
44480;SDS011;30184;42.018;23.670;2023-10-31T01:45:17;6.68;;;2.28;;
44480;SDS011;30184;42.018;23.670;2023-10-31T01:47:46;5.45;;;2.63;;
44480;SDS011;30184;42.018;23.670;2023-10-31T01:50:17;4.20;;;2.13;;
44480;SDS011;30184;42.018;23.670;2023-10-31T01:52:48;7.32;;;2.03;;
44480;SDS011;30184;42.018;23.670;2023-10-31T01:55:18;5.22;;;2.15;;
44480;SDS011;30184;42.018;23.670;2023-10-31T01:57:47;5.13;;;2.10;;
44480;SDS011;30184;42.018;23.670;2023-10-31T02:00:18;7.43;;;2.25;;
44480;SDS011;30184;42.018;23.670;2023-10-31T02:02:47;14.60;;;3.28;;
44480;SDS011;30184;42.018;23.670;2023-10-31T02:05:20;2.78;;;1.50;;
44480;SDS011;30184;42.018;23.670;2023-10-31T02:07:50;8.00;;;2.90;;
44480;SDS011;30184;42.018;23.670;2023-10-31T02:10:20;4.60;;;2.65;;
44480;SDS011;30184;42.018;23.670;2023-10-31T02:12:49;3.60;;;1.85;;
44480;SDS011;30184;42.018;23.670;2023-10-31T02:15:18;4.80;;;2.35;;
44480;SDS011;30184;42.018;23.670;2023-10-31T02:17:49;5.38;;;2.03;;
44480;SDS011;30184;42.018;23.670;2023-10-31T02:20:19;4.78;;;1.98;;
44480;SDS011;30184;42.018;23.670;2023-10-31T02:22:49;3.13;;;1.73;;
44480;SDS011;30184;42.018;23.670;2023-10-31T02:25:18;5.07;;;2.20;;
44480;SDS011;30184;42.018;23.670;2023-10-31T02:27:48;7.88;;;3.38;;
44480;SDS011;30184;42.018;23.670;2023-10-31T02:30:17;8.50;;;3.20;;
44480;SDS011;30184;42.018;23.670;2023-10-31T02:32:46;8.55;;;2.60;;
44480;SDS011;30184;42.018;23.670;2023-10-31T02:35:16;6.07;;;2.60;;
44480;SDS011;30184;42.018;23.670;2023-10-31T02:37:46;8.73;;;5.30;;
44480;SDS011;30184;42.018;23.670;2023-10-31T02:40:17;5.28;;;1.95;;
44480;SDS011;30184;42.018;23.670;2023-10-31T02:42:46;6.07;;;2.83;;
44480;SDS011;30184;42.018;23.670;2023-10-31T02:45:16;5.22;;;2.20;;
44480;SDS011;30184;42.018;23.670;2023-10-31T02:47:46;6.15;;;3.08;;
44480;SDS011;30184;42.018;23.670;2023-10-31T02:50:15;7.97;;;3.00;;
44480;SDS011;30184;42.018;23.670;2023-10-31T02:52:44;3.35;;;2.10;;
44480;SDS011;30184;42.018;23.670;2023-10-31T02:55:13;5.30;;;2.95;;
44480;SDS011;30184;42.018;23.670;2023-10-31T02:57:44;6.57;;;2.53;;
44480;SDS011;30184;42.018;23.670;2023-10-31T03:00:13;6.30;;;3.35;;
44480;SDS011;30184;42.018;23.670;2023-10-31T03:02:43;4.72;;;2.28;;
44480;SDS011;30184;42.018;23.670;2023-10-31T03:05:13;2.67;;;1.80;;
44480;SDS011;30184;42.018;23.670;2023-10-31T03:07:42;4.00;;;1.90;;
44480;SDS011;30184;42.018;23.670;2023-10-31T03:10:15;7.13;;;2.85;;
44480;SDS011;30184;42.018;23.670;2023-10-31T03:12:45;6.70;;;3.40;;
44480;SDS011;30184;42.018;23.670;2023-10-31T03:15:15;4.57;;;2.38;;
44480;SDS011;30184;42.018;23.670;2023-10-31T03:17:44;6.78;;;2.63;;
44480;SDS011;30184;42.018;23.670;2023-10-31T03:20:13;13.57;;;4.45;;
44480;SDS011;30184;42.018;23.670;2023-10-31T03:22:42;9.00;;;3.88;;
44480;SDS011;30184;42.018;23.670;2023-10-31T03:25:11;4.75;;;2.75;;
44480;SDS011;30184;42.018;23.670;2023-10-31T03:27:40;4.57;;;3.22;;
44480;SDS011;30184;42.018;23.670;2023-10-31T03:30:11;4.25;;;2.58;;
44480;SDS011;30184;42.018;23.670;2023-10-31T03:32:41;6.30;;;2.42;;
44480;SDS011;30184;42.018;23.670;2023-10-31T03:35:10;2.65;;;2.03;;
44480;SDS011;30184;42.018;23.670;2023-10-31T03:37:39;2.33;;;1.50;;
44480;SDS011;30184;42.018;23.670;2023-10-31T03:40:09;3.80;;;1.60;;
44480;SDS011;30184;42.018;23.670;2023-10-31T03:42:39;5.93;;;2.58;;
44480;SDS011;30184;42.018;23.670;2023-10-31T03:45:08;12.63;;;2.60;;
44480;SDS011;30184;42.018;23.670;2023-10-31T03:47:39;4.72;;;2.50;;
44480;SDS011;30184;42.018;23.670;2023-10-31T03:50:08;5.70;;;2.95;;
44480;SDS011;30184;42.018;23.670;2023-10-31T03:52:38;4.45;;;2.25;;
44480;SDS011;30184;42.018;23.670;2023-10-31T03:55:07;7.97;;;3.53;;
44480;SDS011;30184;42.018;23.670;2023-10-31T03:57:37;9.38;;;2.70;;
44480;SDS011;30184;42.018;23.670;2023-10-31T04:00:06;6.43;;;2.83;;
44480;SDS011;30184;42.018;23.670;2023-10-31T04:02:43;4.73;;;2.23;;
44480;SDS011;30184;42.018;23.670;2023-10-31T04:05:13;3.80;;;2.35;;
44480;SDS011;30184;42.018;23.670;2023-10-31T04:07:42;7.43;;;2.88;;
44480;SDS011;30184;42.018;23.670;2023-10-31T04:10:11;8.52;;;2.30;;
44480;SDS011;30184;42.018;23.670;2023-10-31T04:12:40;7.20;;;3.22;;
44480;SDS011;30184;42.018;23.670;2023-10-31T04:15:10;9.63;;;3.15;;
44480;SDS011;30184;42.018;23.670;2023-10-31T04:17:39;4.10;;;2.50;;
44480;SDS011;30184;42.018;23.670;2023-10-31T04:20:10;7.15;;;2.85;;
44480;SDS011;30184;42.018;23.670;2023-10-31T04:22:39;5.47;;;2.65;;
44480;SDS011;30184;42.018;23.670;2023-10-31T04:25:08;5.78;;;2.47;;
44480;SDS011;30184;42.018;23.670;2023-10-31T04:27:37;4.80;;;2.42;;
44480;SDS011;30184;42.018;23.670;2023-10-31T04:30:07;4.90;;;3.55;;
44480;SDS011;30184;42.018;23.670;2023-10-31T04:32:37;5.63;;;2.58;;
44480;SDS011;30184;42.018;23.670;2023-10-31T04:35:07;12.75;;;4.68;;
44480;SDS011;30184;42.018;23.670;2023-10-31T04:37:37;3.67;;;2.63;;
44480;SDS011;30184;42.018;23.670;2023-10-31T04:40:07;7.72;;;4.38;;
44480;SDS011;30184;42.018;23.670;2023-10-31T04:42:38;8.23;;;5.47;;
44480;SDS011;30184;42.018;23.670;2023-10-31T04:45:08;6.35;;;4.07;;
44480;SDS011;30184;42.018;23.670;2023-10-31T04:47:38;6.40;;;4.28;;
44480;SDS011;30184;42.018;23.670;2023-10-31T04:50:07;9.52;;;3.80;;
44480;SDS011;30184;42.018;23.670;2023-10-31T04:52:38;7.25;;;4.30;;
44480;SDS011;30184;42.018;23.670;2023-10-31T04:55:07;10.38;;;3.75;;
44480;SDS011;30184;42.018;23.670;2023-10-31T04:57:37;9.57;;;3.53;;
44480;SDS011;30184;42.018;23.670;2023-10-31T05:00:06;6.55;;;3.50;;
44480;SDS011;30184;42.018;23.670;2023-10-31T05:02:36;4.95;;;3.17;;
44480;SDS011;30184;42.018;23.670;2023-10-31T05:05:05;7.40;;;3.15;;
44480;SDS011;30184;42.018;23.670;2023-10-31T05:07:35;3.85;;;2.90;;
44480;SDS011;30184;42.018;23.670;2023-10-31T05:10:06;8.02;;;3.60;;
44480;SDS011;30184;42.018;23.670;2023-10-31T05:12:36;10.27;;;4.80;;
44480;SDS011;30184;42.018;23.670;2023-10-31T05:15:08;15.77;;;4.28;;
44480;SDS011;30184;42.018;23.670;2023-10-31T05:17:38;11.82;;;4.25;;
44480;SDS011;30184;42.018;23.670;2023-10-31T05:20:07;8.13;;;4.50;;
44480;SDS011;30184;42.018;23.670;2023-10-31T05:22:37;10.40;;;5.20;;
44480;SDS011;30184;42.018;23.670;2023-10-31T05:25:08;12.25;;;5.45;;
44480;SDS011;30184;42.018;23.670;2023-10-31T05:27:37;10.88;;;4.55;;
44480;SDS011;30184;42.018;23.670;2023-10-31T05:30:08;11.32;;;5.82;;
44480;SDS011;30184;42.018;23.670;2023-10-31T05:32:38;12.77;;;4.75;;
44480;SDS011;30184;42.018;23.670;2023-10-31T05:35:07;14.40;;;5.85;;
44480;SDS011;30184;42.018;23.670;2023-10-31T05:37:37;11.82;;;6.00;;
44480;SDS011;30184;42.018;23.670;2023-10-31T05:40:08;21.15;;;6.90;;
44480;SDS011;30184;42.018;23.670;2023-10-31T05:42:38;16.35;;;8.02;;
44480;SDS011;30184;42.018;23.670;2023-10-31T05:45:07;26.42;;;10.82;;
44480;SDS011;30184;42.018;23.670;2023-10-31T05:47:37;19.60;;;10.27;;
44480;SDS011;30184;42.018;23.670;2023-10-31T05:50:07;16.23;;;7.28;;
44480;SDS011;30184;42.018;23.670;2023-10-31T05:52:37;21.55;;;10.18;;
44480;SDS011;30184;42.018;23.670;2023-10-31T05:55:07;25.38;;;10.50;;
44480;SDS011;30184;42.018;23.670;2023-10-31T05:57:37;31.05;;;9.77;;
44480;SDS011;30184;42.018;23.670;2023-10-31T06:00:06;17.45;;;8.68;;
44480;SDS011;30184;42.018;23.670;2023-10-31T06:02:38;23.50;;;8.75;;
44480;SDS011;30184;42.018;23.670;2023-10-31T06:05:08;16.90;;;8.07;;
44480;SDS011;30184;42.018;23.670;2023-10-31T06:07:37;20.33;;;8.85;;
44480;SDS011;30184;42.018;23.670;2023-10-31T06:10:08;26.33;;;10.52;;
44480;SDS011;30184;42.018;23.670;2023-10-31T06:12:37;30.73;;;13.57;;
44480;SDS011;30184;42.018;23.670;2023-10-31T06:15:07;49.05;;;16.75;;
44480;SDS011;30184;42.018;23.670;2023-10-31T06:17:36;32.05;;;12.40;;
44480;SDS011;30184;42.018;23.670;2023-10-31T06:20:07;35.70;;;13.52;;
44480;SDS011;30184;42.018;23.670;2023-10-31T06:22:36;33.33;;;15.90;;
44480;SDS011;30184;42.018;23.670;2023-10-31T06:25:08;38.60;;;14.40;;
44480;SDS011;30184;42.018;23.670;2023-10-31T06:27:37;19.83;;;9.50;;
44480;SDS011;30184;42.018;23.670;2023-10-31T06:30:07;15.80;;;7.82;;
44480;SDS011;30184;42.018;23.670;2023-10-31T06:32:37;18.02;;;8.60;;
44480;SDS011;30184;42.018;23.670;2023-10-31T06:35:07;10.93;;;6.30;;
44480;SDS011;30184;42.018;23.670;2023-10-31T06:37:36;15.18;;;6.30;;
44480;SDS011;30184;42.018;23.670;2023-10-31T06:40:08;16.33;;;9.45;;
44480;SDS011;30184;42.018;23.670;2023-10-31T06:42:37;16.08;;;6.40;;
44480;SDS011;30184;42.018;23.670;2023-10-31T06:45:07;13.68;;;4.85;;
44480;SDS011;30184;42.018;23.670;2023-10-31T06:47:36;19.48;;;6.25;;
44480;SDS011;30184;42.018;23.670;2023-10-31T06:50:07;12.77;;;4.90;;
44480;SDS011;30184;42.018;23.670;2023-10-31T06:52:36;29.58;;;11.32;;
44480;SDS011;30184;42.018;23.670;2023-10-31T06:55:08;24.67;;;12.10;;
44480;SDS011;30184;42.018;23.670;2023-10-31T06:57:37;39.67;;;15.88;;
44480;SDS011;30184;42.018;23.670;2023-10-31T07:00:06;193.73;;;56.33;;
44480;SDS011;30184;42.018;23.670;2023-10-31T07:02:36;85.75;;;36.97;;
44480;SDS011;30184;42.018;23.670;2023-10-31T07:05:06;40.28;;;20.90;;
44480;SDS011;30184;42.018;23.670;2023-10-31T07:07:36;66.93;;;23.45;;
44480;SDS011;30184;42.018;23.670;2023-10-31T07:10:05;44.20;;;13.30;;
44480;SDS011;30184;42.018;23.670;2023-10-31T07:12:36;34.95;;;13.93;;
44480;SDS011;30184;42.018;23.670;2023-10-31T07:15:06;39.70;;;16.08;;
44480;SDS011;30184;42.018;23.670;2023-10-31T07:17:35;28.65;;;12.77;;
44480;SDS011;30184;42.018;23.670;2023-10-31T07:20:05;40.28;;;15.93;;
44480;SDS011;30184;42.018;23.670;2023-10-31T07:22:35;26.95;;;13.15;;
44480;SDS011;30184;42.018;23.670;2023-10-31T07:25:05;25.95;;;10.85;;
44480;SDS011;30184;42.018;23.670;2023-10-31T07:27:34;47.58;;;19.02;;
44480;SDS011;30184;42.018;23.670;2023-10-31T07:30:06;15.02;;;7.55;;
44480;SDS011;30184;42.018;23.670;2023-10-31T07:32:35;10.48;;;5.00;;
44480;SDS011;30184;42.018;23.670;2023-10-31T07:35:05;12.35;;;6.60;;
44480;SDS011;30184;42.018;23.670;2023-10-31T07:37:34;24.45;;;11.02;;
44480;SDS011;30184;42.018;23.670;2023-10-31T07:40:04;26.25;;;12.80;;
44480;SDS011;30184;42.018;23.670;2023-10-31T07:42:33;24.67;;;12.50;;
44480;SDS011;30184;42.018;23.670;2023-10-31T07:45:03;21.30;;;9.25;;
44480;SDS011;30184;42.018;23.670;2023-10-31T07:47:34;24.42;;;9.65;;
44480;SDS011;30184;42.018;23.670;2023-10-31T07:50:04;22.58;;;8.75;;
44480;SDS011;30184;42.018;23.670;2023-10-31T07:52:33;23.42;;;8.10;;
44480;SDS011;30184;42.018;23.670;2023-10-31T07:55:02;19.77;;;9.10;;
44480;SDS011;30184;42.018;23.670;2023-10-31T07:57:32;17.30;;;8.10;;
44480;SDS011;30184;42.018;23.670;2023-10-31T08:00:01;8.60;;;4.65;;
44480;SDS011;30184;42.018;23.670;2023-10-31T08:02:39;10.63;;;5.95;;
44480;SDS011;30184;42.018;23.670;2023-10-31T08:05:09;13.20;;;5.25;;
44480;SDS011;30184;42.018;23.670;2023-10-31T08:07:39;18.15;;;6.18;;
44480;SDS011;30184;42.018;23.670;2023-10-31T08:10:08;14.00;;;5.60;;
44480;SDS011;30184;42.018;23.670;2023-10-31T08:12:37;7.30;;;3.80;;
44480;SDS011;30184;42.018;23.670;2023-10-31T08:15:07;5.70;;;3.63;;
44480;SDS011;30184;42.018;23.670;2023-10-31T08:17:37;11.63;;;4.72;;
44480;SDS011;30184;42.018;23.670;2023-10-31T08:20:08;13.52;;;5.45;;
44480;SDS011;30184;42.018;23.670;2023-10-31T08:22:38;10.65;;;5.72;;
44480;SDS011;30184;42.018;23.670;2023-10-31T08:25:09;35.83;;;10.70;;
44480;SDS011;30184;42.018;23.670;2023-10-31T08:27:40;9.13;;;4.35;;
44480;SDS011;30184;42.018;23.670;2023-10-31T08:30:09;5.38;;;2.92;;
44480;SDS011;30184;42.018;23.670;2023-10-31T08:32:39;12.15;;;4.88;;
44480;SDS011;30184;42.018;23.670;2023-10-31T08:35:09;6.82;;;2.80;;
44480;SDS011;30184;42.018;23.670;2023-10-31T08:37:38;5.70;;;2.67;;
44480;SDS011;30184;42.018;23.670;2023-10-31T08:40:08;4.88;;;3.13;;
44480;SDS011;30184;42.018;23.670;2023-10-31T08:42:38;6.47;;;3.35;;
44480;SDS011;30184;42.018;23.670;2023-10-31T08:45:07;7.82;;;3.13;;
44480;SDS011;30184;42.018;23.670;2023-10-31T08:47:37;6.90;;;2.60;;
44480;SDS011;30184;42.018;23.670;2023-10-31T08:50:06;7.63;;;3.25;;
44480;SDS011;30184;42.018;23.670;2023-10-31T08:52:38;4.75;;;2.97;;
44480;SDS011;30184;42.018;23.670;2023-10-31T08:55:08;8.40;;;3.28;;
44480;SDS011;30184;42.018;23.670;2023-10-31T08:57:37;7.00;;;2.83;;
44480;SDS011;30184;42.018;23.670;2023-10-31T09:00:06;4.53;;;2.35;;
44480;SDS011;30184;42.018;23.670;2023-10-31T09:02:36;6.13;;;2.83;;
44480;SDS011;30184;42.018;23.670;2023-10-31T09:05:06;4.90;;;2.55;;
44480;SDS011;30184;42.018;23.670;2023-10-31T09:07:35;8.07;;;3.55;;
44480;SDS011;30184;42.018;23.670;2023-10-31T09:10:07;8.23;;;3.17;;
44480;SDS011;30184;42.018;23.670;2023-10-31T09:12:36;8.75;;;3.15;;
44480;SDS011;30184;42.018;23.670;2023-10-31T09:15:06;6.10;;;2.88;;
44480;SDS011;30184;42.018;23.670;2023-10-31T09:17:37;4.70;;;1.88;;
44480;SDS011;30184;42.018;23.670;2023-10-31T09:20:06;7.68;;;2.42;;
44480;SDS011;30184;42.018;23.670;2023-10-31T09:22:36;5.90;;;2.05;;
44480;SDS011;30184;42.018;23.670;2023-10-31T09:25:07;8.43;;;3.15;;
44480;SDS011;30184;42.018;23.670;2023-10-31T09:27:40;3.35;;;1.90;;
44480;SDS011;30184;42.018;23.670;2023-10-31T09:30:09;8.40;;;3.42;;
44480;SDS011;30184;42.018;23.670;2023-10-31T09:32:39;9.07;;;3.55;;
44480;SDS011;30184;42.018;23.670;2023-10-31T09:35:08;14.40;;;3.53;;
44480;SDS011;30184;42.018;23.670;2023-10-31T09:37:38;9.90;;;3.00;;
44480;SDS011;30184;42.018;23.670;2023-10-31T09:40:11;3.22;;;1.65;;
44480;SDS011;30184;42.018;23.670;2023-10-31T09:42:40;3.15;;;1.55;;
44480;SDS011;30184;42.018;23.670;2023-10-31T09:45:09;2.50;;;1.92;;
44480;SDS011;30184;42.018;23.670;2023-10-31T09:47:39;7.05;;;1.90;;
44480;SDS011;30184;42.018;23.670;2023-10-31T09:50:09;7.10;;;2.40;;
44480;SDS011;30184;42.018;23.670;2023-10-31T09:52:40;10.57;;;2.67;;
44480;SDS011;30184;42.018;23.670;2023-10-31T09:55:11;3.90;;;1.58;;
44480;SDS011;30184;42.018;23.670;2023-10-31T09:57:40;5.10;;;1.80;;
44480;SDS011;30184;42.018;23.670;2023-10-31T10:00:10;5.13;;;1.70;;
44480;SDS011;30184;42.018;23.670;2023-10-31T10:02:40;5.75;;;2.50;;
44480;SDS011;30184;42.018;23.670;2023-10-31T10:05:09;5.28;;;1.67;;
44480;SDS011;30184;42.018;23.670;2023-10-31T10:07:41;4.10;;;1.73;;
44480;SDS011;30184;42.018;23.670;2023-10-31T10:10:13;5.30;;;1.50;;
44480;SDS011;30184;42.018;23.670;2023-10-31T10:12:42;7.07;;;1.88;;
44480;SDS011;30184;42.018;23.670;2023-10-31T10:15:11;5.68;;;2.15;;
44480;SDS011;30184;42.018;23.670;2023-10-31T10:17:42;3.67;;;2.00;;
44480;SDS011;30184;42.018;23.670;2023-10-31T10:20:17;6.80;;;2.20;;
44480;SDS011;30184;42.018;23.670;2023-10-31T10:22:47;3.40;;;2.03;;
44480;SDS011;30184;42.018;23.670;2023-10-31T10:25:19;3.25;;;1.73;;
44480;SDS011;30184;42.018;23.670;2023-10-31T10:27:48;4.57;;;1.65;;
44480;SDS011;30184;42.018;23.670;2023-10-31T10:30:17;6.80;;;1.77;;
44480;SDS011;30184;42.018;23.670;2023-10-31T10:32:49;5.75;;;2.05;;
44480;SDS011;30184;42.018;23.670;2023-10-31T10:35:18;3.20;;;1.35;;
44480;SDS011;30184;42.018;23.670;2023-10-31T10:37:48;6.97;;;2.97;;
44480;SDS011;30184;42.018;23.670;2023-10-31T10:40:22;5.28;;;2.05;;
44480;SDS011;30184;42.018;23.670;2023-10-31T10:42:52;6.95;;;1.95;;
44480;SDS011;30184;42.018;23.670;2023-10-31T10:45:27;6.13;;;2.00;;
44480;SDS011;30184;42.018;23.670;2023-10-31T10:47:57;3.70;;;1.67;;
44480;SDS011;30184;42.018;23.670;2023-10-31T10:50:30;5.75;;;1.27;;
44480;SDS011;30184;42.018;23.670;2023-10-31T10:53:05;5.68;;;2.03;;
44480;SDS011;30184;42.018;23.670;2023-10-31T10:55:43;5.13;;;2.28;;
44480;SDS011;30184;42.018;23.670;2023-10-31T10:58:17;6.72;;;2.25;;
44480;SDS011;30184;42.018;23.670;2023-10-31T11:00:53;4.60;;;2.50;;
44480;SDS011;30184;42.018;23.670;2023-10-31T11:03:24;2.30;;;1.60;;
44480;SDS011;30184;42.018;23.670;2023-10-31T11:05:55;3.85;;;1.75;;
44480;SDS011;30184;42.018;23.670;2023-10-31T11:08:24;5.65;;;1.85;;
44480;SDS011;30184;42.018;23.670;2023-10-31T11:10:56;6.85;;;1.80;;
44480;SDS011;30184;42.018;23.670;2023-10-31T11:13:26;4.72;;;2.55;;
44480;SDS011;30184;42.018;23.670;2023-10-31T11:15:57;2.35;;;1.48;;
44480;SDS011;30184;42.018;23.670;2023-10-31T11:18:38;5.63;;;1.88;;
44480;SDS011;30184;42.018;23.670;2023-10-31T11:21:08;3.53;;;1.48;;
44480;SDS011;30184;42.018;23.670;2023-10-31T11:23:38;4.78;;;2.08;;
44480;SDS011;30184;42.018;23.670;2023-10-31T11:26:09;4.32;;;1.77;;
44480;SDS011;30184;42.018;23.670;2023-10-31T11:28:38;5.18;;;1.88;;
44480;SDS011;30184;42.018;23.670;2023-10-31T11:31:08;4.50;;;1.67;;
44480;SDS011;30184;42.018;23.670;2023-10-31T11:33:38;7.35;;;1.80;;
44480;SDS011;30184;42.018;23.670;2023-10-31T11:36:10;4.55;;;1.48;;
44480;SDS011;30184;42.018;23.670;2023-10-31T11:38:40;1.95;;;1.35;;
44480;SDS011;30184;42.018;23.670;2023-10-31T11:41:11;11.15;;;1.95;;
44480;SDS011;30184;42.018;23.670;2023-10-31T11:43:52;5.43;;;1.40;;
44480;SDS011;30184;42.018;23.670;2023-10-31T11:46:22;4.43;;;1.50;;
44480;SDS011;30184;42.018;23.670;2023-10-31T11:48:53;2.85;;;1.13;;
44480;SDS011;30184;42.018;23.670;2023-10-31T11:51:24;3.90;;;1.52;;
44480;SDS011;30184;42.018;23.670;2023-10-31T11:53:53;5.07;;;1.70;;
44480;SDS011;30184;42.018;23.670;2023-10-31T11:56:24;2.63;;;1.55;;
44480;SDS011;30184;42.018;23.670;2023-10-31T11:58:57;2.67;;;1.17;;
44480;SDS011;30184;42.018;23.670;2023-10-31T12:01:28;2.50;;;1.20;;
44480;SDS011;30184;42.018;23.670;2023-10-31T12:03:57;4.07;;;1.77;;
44480;SDS011;30184;42.018;23.670;2023-10-31T12:06:27;9.75;;;1.63;;
44480;SDS011;30184;42.018;23.670;2023-10-31T12:08:59;2.00;;;1.13;;
44480;SDS011;30184;42.018;23.670;2023-10-31T12:11:31;4.05;;;1.45;;
44480;SDS011;30184;42.018;23.670;2023-10-31T12:14:00;5.72;;;1.45;;
44480;SDS011;30184;42.018;23.670;2023-10-31T12:16:33;5.47;;;2.05;;
44480;SDS011;30184;42.018;23.670;2023-10-31T12:19:03;4.68;;;1.50;;
44480;SDS011;30184;42.018;23.670;2023-10-31T12:21:34;3.75;;;1.90;;
44480;SDS011;30184;42.018;23.670;2023-10-31T12:24:05;4.10;;;2.00;;
44480;SDS011;30184;42.018;23.670;2023-10-31T12:26:37;7.55;;;2.50;;
44480;SDS011;30184;42.018;23.670;2023-10-31T12:29:07;3.80;;;2.00;;
44480;SDS011;30184;42.018;23.670;2023-10-31T12:31:44;5.95;;;2.78;;
44480;SDS011;30184;42.018;23.670;2023-10-31T12:34:17;3.85;;;1.88;;
44480;SDS011;30184;42.018;23.670;2023-10-31T12:36:47;5.78;;;2.00;;
44480;SDS011;30184;42.018;23.670;2023-10-31T12:39:20;9.30;;;2.00;;
44480;SDS011;30184;42.018;23.670;2023-10-31T12:41:52;4.07;;;1.85;;
44480;SDS011;30184;42.018;23.670;2023-10-31T12:44:23;6.60;;;2.10;;
44480;SDS011;30184;42.018;23.670;2023-10-31T12:46:54;3.70;;;2.10;;
44480;SDS011;30184;42.018;23.670;2023-10-31T12:49:23;3.63;;;1.55;;
44480;SDS011;30184;42.018;23.670;2023-10-31T12:51:57;2.58;;;1.15;;
44480;SDS011;30184;42.018;23.670;2023-10-31T12:54:28;4.10;;;1.27;;
44480;SDS011;30184;42.018;23.670;2023-10-31T12:57:03;9.38;;;1.52;;
44480;SDS011;30184;42.018;23.670;2023-10-31T12:59:33;4.95;;;1.98;;
44480;SDS011;30184;42.018;23.670;2023-10-31T13:02:05;7.38;;;1.50;;
44480;SDS011;30184;42.018;23.670;2023-10-31T13:04:35;2.38;;;1.50;;
44480;SDS011;30184;42.018;23.670;2023-10-31T13:07:06;3.42;;;1.60;;
44480;SDS011;30184;42.018;23.670;2023-10-31T13:09:36;2.58;;;1.48;;
44480;SDS011;30184;42.018;23.670;2023-10-31T13:12:10;5.20;;;2.40;;
44480;SDS011;30184;42.018;23.670;2023-10-31T13:14:39;5.38;;;2.25;;
44480;SDS011;30184;42.018;23.670;2023-10-31T13:17:08;7.70;;;2.05;;
44480;SDS011;30184;42.018;23.670;2023-10-31T13:19:38;3.30;;;1.80;;
44480;SDS011;30184;42.018;23.670;2023-10-31T13:22:08;3.17;;;1.60;;
44480;SDS011;30184;42.018;23.670;2023-10-31T13:24:38;2.28;;;1.05;;
44480;SDS011;30184;42.018;23.670;2023-10-31T13:27:09;37.90;;;15.32;;
44480;SDS011;30184;42.018;23.670;2023-10-31T13:29:42;14.63;;;5.25;;
44480;SDS011;30184;42.018;23.670;2023-10-31T13:32:13;6.00;;;2.05;;
44480;SDS011;30184;42.018;23.670;2023-10-31T13:34:43;3.67;;;1.98;;
44480;SDS011;30184;42.018;23.670;2023-10-31T13:37:12;5.25;;;2.10;;
44480;SDS011;30184;42.018;23.670;2023-10-31T13:39:41;5.40;;;2.20;;
44480;SDS011;30184;42.018;23.670;2023-10-31T13:42:12;6.78;;;2.67;;
44480;SDS011;30184;42.018;23.670;2023-10-31T13:44:42;10.35;;;4.07;;
44480;SDS011;30184;42.018;23.670;2023-10-31T13:47:11;6.97;;;2.85;;
44480;SDS011;30184;42.018;23.670;2023-10-31T13:49:41;7.78;;;2.33;;
44480;SDS011;30184;42.018;23.670;2023-10-31T13:52:10;3.95;;;2.10;;
44480;SDS011;30184;42.018;23.670;2023-10-31T13:54:39;14.63;;;6.85;;
44480;SDS011;30184;42.018;23.670;2023-10-31T13:57:13;14.15;;;4.82;;
44480;SDS011;30184;42.018;23.670;2023-10-31T13:59:42;6.22;;;2.38;;
44480;SDS011;30184;42.018;23.670;2023-10-31T14:02:11;4.55;;;2.03;;
44480;SDS011;30184;42.018;23.670;2023-10-31T14:04:41;4.97;;;2.00;;
44480;SDS011;30184;42.018;23.670;2023-10-31T14:07:10;6.05;;;2.15;;
44480;SDS011;30184;42.018;23.670;2023-10-31T14:09:46;3.83;;;1.75;;
44480;SDS011;30184;42.018;23.670;2023-10-31T14:12:17;6.07;;;2.88;;
44480;SDS011;30184;42.018;23.670;2023-10-31T14:14:46;11.32;;;4.35;;
44480;SDS011;30184;42.018;23.670;2023-10-31T14:17:16;15.60;;;4.70;;
44480;SDS011;30184;42.018;23.670;2023-10-31T14:19:45;20.33;;;6.75;;
44480;SDS011;30184;42.018;23.670;2023-10-31T14:22:15;63.28;;;19.08;;
44480;SDS011;30184;42.018;23.670;2023-10-31T14:24:44;41.22;;;15.60;;
44480;SDS011;30184;42.018;23.670;2023-10-31T14:27:14;30.05;;;11.35;;
44480;SDS011;30184;42.018;23.670;2023-10-31T14:29:45;11.77;;;7.53;;
44480;SDS011;30184;42.018;23.670;2023-10-31T14:32:14;21.08;;;5.45;;
44480;SDS011;30184;42.018;23.670;2023-10-31T14:34:44;11.80;;;4.97;;
44480;SDS011;30184;42.018;23.670;2023-10-31T14:37:14;15.77;;;8.10;;
44480;SDS011;30184;42.018;23.670;2023-10-31T14:39:44;15.32;;;6.25;;
44480;SDS011;30184;42.018;23.670;2023-10-31T14:42:13;12.45;;;4.70;;
44480;SDS011;30184;42.018;23.670;2023-10-31T14:44:42;13.63;;;5.90;;